createdAt,value
2022-11-19T00:01:22.921Z,19.64
2022-11-19T00:03:52.681Z,19.62
2022-11-19T00:06:22.298Z,19.57
2022-11-19T00:08:49.215Z,19.77
2022-11-19T00:11:41.179Z,19.99
2022-11-19T00:14:09.105Z,20.18
2022-11-19T00:16:35.920Z,20.34
2022-11-19T00:19:02.452Z,20.46
2022-11-19T00:21:29.031Z,20.55
2022-11-19T00:23:56.376Z,20.65
2022-11-19T00:26:23.655Z,20.76
2022-11-19T00:28:50.502Z,20.79
2022-11-19T00:31:17.785Z,20.85
2022-11-19T00:33:45.333Z,20.91
2022-11-19T00:36:14.699Z,21.01
2022-11-19T00:38:41.533Z,21.09
2022-11-19T00:41:08.653Z,21.12
2022-11-19T00:43:47.432Z,21.11
2022-11-19T00:46:16.107Z,21.08
2022-11-19T00:48:42.994Z,21.06
2022-11-19T00:51:10.187Z,21.06
2022-11-19T00:53:37.410Z,20.98
2022-11-19T00:56:06.377Z,20.96
2022-11-19T00:58:33.068Z,20.86
2022-11-19T01:01:00.053Z,20.92
2022-11-19T01:03:27.071Z,20.95
2022-11-19T01:05:53.768Z,20.93
2022-11-19T01:08:20.607Z,20.97
2022-11-19T01:10:47.179Z,21.06
2022-11-19T01:13:32.404Z,21.05
2022-11-19T01:15:58.961Z,21.10
2022-11-19T01:18:26.976Z,21.09
2022-11-19T01:20:54.153Z,21.08
2022-11-19T01:23:23.766Z,21.09
2022-11-19T01:25:50.329Z,21.12
2022-11-19T01:28:17.039Z,21.09
2022-11-19T01:30:44.740Z,21.06
2022-11-19T01:33:11.658Z,21.11
2022-11-19T01:35:38.266Z,21.10
2022-11-19T01:38:05.784Z,21.14
2022-11-19T01:40:33.299Z,21.09
2022-11-19T01:42:59.891Z,21.08
2022-11-19T01:45:38.232Z,21.06
2022-11-19T01:48:31.543Z,21.11
2022-11-19T01:51:24.320Z,21.07
2022-11-19T01:53:53.893Z,21.11
2022-11-19T01:56:22.661Z,21.19
2022-11-19T01:58:54.927Z,21.16
2022-11-19T02:01:22.222Z,21.14
2022-11-19T02:03:50.887Z,21.13
2022-11-19T02:06:17.566Z,21.11
2022-11-19T02:08:53.408Z,21.14
2022-11-19T02:11:25.805Z,21.32
2022-11-19T02:14:04.504Z,21.20
2022-11-19T02:17:02.364Z,20.94
2022-11-19T02:19:55.133Z,20.78
2022-11-19T02:22:58.619Z,20.57
2022-11-19T02:25:55.970Z,20.47
2022-11-19T02:28:44.269Z,20.33
2022-11-19T02:31:47.962Z,20.27
2022-11-19T02:34:21.257Z,20.18
2022-11-19T02:36:59.320Z,20.14
2022-11-19T02:39:35.904Z,20.08
2022-11-19T02:42:32.184Z,20.09
2022-11-19T02:45:22.182Z,20.06
2022-11-19T02:47:59.834Z,20.03
2022-11-19T02:50:31.785Z,20.02
2022-11-19T02:52:58.593Z,20.02
2022-11-19T02:55:25.676Z,20.05
2022-11-19T02:58:34.684Z,20.02
2022-11-19T03:01:22.183Z,20.00
2022-11-19T03:04:08.634Z,19.97
2022-11-19T03:06:35.371Z,19.93
2022-11-19T03:09:02.422Z,19.92
2022-11-19T03:11:31.642Z,19.92
2022-11-19T03:14:26.716Z,19.92
2022-11-19T03:16:59.026Z,19.91
2022-11-19T03:19:37.555Z,19.84
2022-11-19T03:22:10.188Z,19.84
2022-11-19T03:24:42.035Z,19.77
2022-11-19T03:27:13.214Z,19.82
2022-11-19T03:29:45.343Z,19.77
2022-11-19T03:32:18.483Z,19.77
2022-11-19T03:34:48.897Z,19.74
2022-11-19T03:37:19.870Z,19.75
2022-11-19T03:39:48.697Z,19.75
2022-11-19T03:42:17.065Z,19.72
2022-11-19T03:44:48.349Z,19.70
2022-11-19T03:47:20.071Z,19.69
2022-11-19T03:49:52.598Z,19.71
2022-11-19T03:52:20.923Z,19.67
2022-11-19T03:54:47.880Z,19.59
2022-11-19T03:57:19.050Z,19.64
2022-11-19T03:59:46.294Z,19.62
2022-11-19T04:02:13.802Z,19.61
2022-11-19T04:04:40.777Z,19.57
2022-11-19T04:07:08.898Z,19.56
2022-11-19T04:09:35.583Z,19.57
2022-11-19T04:12:02.500Z,19.53
2022-11-19T04:14:29.200Z,19.59
2022-11-19T04:16:56.154Z,19.53
2022-11-19T04:19:22.721Z,19.53
2022-11-19T04:21:49.393Z,19.51
2022-11-19T04:24:16.023Z,19.51
2022-11-19T04:26:42.977Z,19.51
2022-11-19T04:29:09.560Z,19.48
2022-11-19T04:31:36.212Z,19.54
2022-11-19T04:34:02.879Z,19.52
2022-11-19T04:36:29.480Z,19.53
2022-11-19T04:38:56.051Z,19.47
2022-11-19T04:41:22.707Z,19.49
2022-11-19T04:43:49.241Z,19.49
2022-11-19T04:46:15.789Z,19.49
2022-11-19T04:48:42.371Z,19.46
2022-11-19T04:51:09.023Z,19.45
2022-11-19T04:53:35.603Z,19.45
2022-11-19T04:56:02.249Z,19.42
2022-11-19T04:58:28.801Z,19.39
2022-11-19T05:00:55.368Z,19.43
2022-11-19T05:03:21.992Z,19.42
2022-11-19T05:05:48.586Z,19.43
2022-11-19T05:08:15.235Z,19.41
2022-11-19T05:10:43.685Z,19.41
2022-11-19T05:13:10.391Z,19.42
2022-11-19T05:15:36.943Z,19.39
2022-11-19T05:18:03.619Z,19.43
2022-11-19T05:20:30.150Z,19.42
2022-11-19T05:22:56.774Z,19.36
2022-11-19T05:25:23.368Z,19.37
2022-11-19T05:27:50.095Z,19.35
2022-11-19T05:30:17.073Z,19.35
2022-11-19T05:32:43.701Z,19.32
2022-11-19T05:35:10.506Z,19.36
2022-11-19T05:37:37.051Z,19.34
2022-11-19T05:40:04.141Z,19.33
2022-11-19T05:42:30.694Z,19.31
2022-11-19T05:44:57.246Z,19.31
2022-11-19T05:47:23.821Z,19.33
2022-11-19T05:49:50.377Z,19.31
2022-11-19T05:52:16.930Z,19.29
2022-11-19T05:54:43.459Z,19.34
2022-11-19T05:57:10.035Z,19.30
2022-11-19T05:59:43.474Z,19.29
2022-11-19T06:02:10.731Z,19.30
2022-11-19T06:04:38.040Z,19.28
2022-11-19T06:07:04.701Z,19.30
2022-11-19T06:09:31.271Z,19.29
2022-11-19T06:11:57.868Z,19.32
2022-11-19T06:14:26.136Z,19.29
2022-11-19T06:17:01.787Z,19.31
2022-11-19T06:19:28.320Z,19.27
2022-11-19T06:21:54.881Z,19.27
2022-11-19T06:24:21.944Z,19.26
2022-11-19T06:26:48.558Z,19.24
2022-11-19T06:29:17.067Z,19.27
2022-11-19T06:31:44.129Z,19.26
2022-11-19T06:34:11.219Z,19.23
2022-11-19T06:36:42.721Z,19.30
2022-11-19T06:39:10.785Z,19.24
2022-11-19T06:41:37.324Z,19.24
2022-11-19T06:44:04.039Z,19.27
2022-11-19T06:46:30.768Z,19.26
2022-11-19T06:48:57.342Z,19.27
2022-11-19T06:51:23.959Z,19.28
2022-11-19T06:53:50.527Z,19.26
2022-11-19T06:56:17.110Z,19.23
2022-11-19T06:58:43.643Z,19.23
2022-11-19T07:01:10.176Z,19.24
2022-11-19T07:03:36.795Z,19.30
2022-11-19T07:06:04.893Z,19.29
2022-11-19T07:08:34.839Z,19.29
2022-11-19T07:11:22.638Z,19.31
2022-11-19T07:13:59.589Z,19.32
2022-11-19T07:16:29.661Z,19.31
2022-11-19T07:19:00.727Z,19.29
2022-11-19T07:21:28.602Z,19.25
2022-11-19T07:23:56.309Z,19.27
2022-11-19T07:26:23.444Z,19.16
2022-11-19T07:28:50.389Z,19.20
2022-11-19T07:31:16.936Z,19.23
2022-11-19T07:33:43.494Z,19.29
2022-11-19T07:36:18.158Z,19.33
2022-11-19T07:38:45.193Z,19.42
2022-11-19T07:41:30.169Z,19.51
2022-11-19T07:43:56.756Z,19.53
2022-11-19T07:46:23.348Z,19.61
2022-11-19T07:48:57.379Z,19.61
2022-11-19T07:51:25.008Z,19.63
2022-11-19T07:53:51.946Z,19.60
2022-11-19T07:56:20.209Z,19.61
2022-11-19T07:58:47.338Z,19.67
2022-11-19T08:01:19.466Z,19.67
2022-11-19T08:03:55.959Z,19.76
2022-11-19T08:06:27.257Z,20.01
2022-11-19T08:08:56.298Z,20.38
2022-11-19T08:11:23.269Z,20.84
2022-11-19T08:13:49.809Z,21.21
2022-11-19T08:16:35.283Z,21.76
2022-11-19T08:19:03.105Z,22.18
2022-11-19T08:21:29.654Z,22.16
2022-11-19T08:23:56.678Z,22.02
2022-11-19T08:26:23.241Z,21.88
2022-11-19T08:28:49.899Z,21.70
2022-11-19T08:31:16.804Z,21.50
2022-11-19T08:33:43.449Z,21.13
2022-11-19T08:36:10.094Z,20.85
2022-11-19T08:38:38.804Z,20.69
2022-11-19T08:41:24.082Z,20.60
2022-11-19T08:43:50.707Z,20.64
2022-11-19T08:46:17.281Z,20.56
2022-11-19T08:48:43.872Z,20.48
2022-11-19T08:51:10.714Z,20.40
2022-11-19T08:53:37.565Z,20.40
2022-11-19T08:56:05.304Z,20.42
2022-11-19T08:58:31.979Z,20.48
2022-11-19T09:00:58.851Z,20.61
2022-11-19T09:03:25.701Z,20.57
2022-11-19T09:06:01.431Z,20.47
2022-11-19T09:08:28.506Z,20.56
2022-11-19T09:10:55.066Z,20.85
2022-11-19T09:13:21.745Z,20.83
2022-11-19T09:15:49.437Z,20.76
2022-11-19T09:18:17.167Z,20.73
2022-11-19T09:20:45.261Z,20.68
2022-11-19T09:23:11.813Z,20.61
2022-11-19T09:25:38.410Z,20.50
2022-11-19T09:28:04.994Z,20.41
2022-11-19T09:30:31.535Z,20.30
2022-11-19T09:32:59.959Z,20.37
2022-11-19T09:35:26.522Z,20.80
2022-11-19T09:37:53.092Z,21.82
2022-11-19T09:40:21.832Z,21.98
2022-11-19T09:43:08.464Z,22.02
2022-11-19T09:46:01.617Z,22.76
2022-11-19T09:48:39.022Z,22.75
2022-11-19T09:51:18.914Z,21.65
2022-11-19T09:53:51.284Z,21.30
2022-11-19T09:56:42.055Z,21.03
2022-11-19T09:59:35.448Z,20.83
2022-11-19T10:02:04.160Z,20.71
2022-11-19T10:04:33.493Z,20.67
2022-11-19T10:07:16.334Z,20.61
2022-11-19T10:10:16.011Z,20.65
2022-11-19T10:12:45.245Z,20.60
2022-11-19T10:15:38.015Z,20.49
2022-11-19T10:18:07.725Z,20.54
2022-11-19T10:20:52.324Z,20.59
2022-11-19T10:23:20.778Z,20.64
2022-11-19T10:25:50.360Z,20.74
2022-11-19T10:28:27.617Z,20.77
2022-11-19T10:31:08.200Z,20.78
2022-11-19T10:33:48.865Z,20.76
2022-11-19T10:36:26.475Z,20.64
2022-11-19T10:39:10.520Z,20.49
2022-11-19T10:41:45.579Z,20.34
2022-11-19T10:44:43.226Z,20.25
2022-11-19T10:47:29.969Z,20.22
2022-11-19T10:49:57.016Z,20.13
2022-11-19T10:52:41.204Z,20.11
2022-11-19T10:55:33.020Z,20.05
2022-11-19T10:58:22.148Z,20.04
2022-11-19T11:00:50.365Z,20.04
2022-11-19T11:03:24.298Z,20.02
2022-11-19T11:06:05.352Z,20.01
2022-11-19T11:08:33.219Z,20.00
2022-11-19T11:11:00.975Z,20.01
2022-11-19T11:13:54.748Z,19.98
2022-11-19T11:16:25.851Z,19.96
2022-11-19T11:18:56.764Z,19.99
2022-11-19T11:21:29.219Z,19.96
2022-11-19T11:23:56.391Z,19.94
2022-11-19T11:26:28.218Z,19.93
2022-11-19T11:29:02.587Z,19.92
2022-11-19T11:31:43.603Z,19.92
2022-11-19T11:34:30.159Z,19.90
2022-11-19T11:36:57.946Z,19.90
2022-11-19T11:39:49.192Z,19.96
2022-11-19T11:42:20.027Z,20.04
2022-11-19T11:44:56.112Z,20.20
2022-11-19T11:47:27.560Z,20.35
2022-11-19T11:50:08.716Z,20.43
2022-11-19T11:52:46.180Z,20.58
2022-11-19T11:55:31.683Z,20.60
2022-11-19T11:58:01.232Z,20.59
2022-11-19T12:00:40.941Z,20.55
2022-11-19T12:03:11.402Z,20.46
2022-11-19T12:06:02.064Z,20.39
2022-11-19T12:08:43.764Z,20.36
2022-11-19T12:11:16.331Z,20.29
2022-11-19T12:14:09.588Z,20.21
2022-11-19T12:17:08.364Z,20.13
2022-11-19T12:19:34.860Z,20.11
2022-11-19T12:22:06.564Z,20.05
2022-11-19T12:24:58.197Z,20.03
2022-11-19T12:27:52.767Z,19.97
2022-11-19T12:30:30.926Z,19.96
2022-11-19T12:33:25.003Z,19.94
2022-11-19T12:35:52.981Z,19.94
2022-11-19T12:38:34.364Z,19.95
2022-11-19T12:41:19.185Z,19.96
2022-11-19T12:43:56.798Z,19.94
2022-11-19T12:46:51.632Z,19.93
2022-11-19T12:49:18.410Z,19.92
2022-11-19T12:52:05.658Z,19.95
2022-11-19T12:54:52.440Z,19.96
2022-11-19T12:57:43.943Z,19.96
2022-11-19T13:00:19.130Z,20.00
2022-11-19T13:02:50.994Z,19.99
2022-11-19T13:05:27.562Z,20.03
2022-11-19T13:08:03.001Z,20.05
2022-11-19T13:10:38.687Z,20.07
2022-11-19T13:13:07.827Z,20.08
2022-11-19T13:15:42.659Z,20.11
2022-11-19T13:18:14.076Z,20.09
2022-11-19T13:20:57.238Z,20.08
2022-11-19T13:23:31.484Z,20.06
2022-11-19T13:26:02.894Z,20.06
2022-11-19T13:28:36.210Z,20.07
2022-11-19T13:31:10.031Z,20.09
2022-11-19T13:33:45.723Z,20.07
2022-11-19T13:36:22.181Z,20.08
2022-11-19T13:38:55.493Z,20.05
2022-11-19T13:42:08.996Z,20.07
2022-11-19T13:44:41.032Z,20.04
2022-11-19T13:47:09.859Z,20.03
2022-11-19T13:49:51.673Z,20.04
2022-11-19T13:52:27.076Z,20.02
2022-11-19T13:54:54.596Z,20.00
2022-11-19T13:57:33.889Z,19.98
2022-11-19T14:00:20.947Z,19.95
2022-11-19T14:03:04.046Z,19.92
2022-11-19T14:05:58.408Z,19.87
2022-11-19T14:08:46.155Z,19.84
2022-11-19T14:11:45.075Z,19.80
2022-11-19T14:14:49.127Z,19.80
2022-11-19T14:17:49.182Z,19.76
2022-11-19T14:20:53.040Z,19.73
2022-11-19T14:23:59.967Z,19.68
2022-11-19T14:26:41.422Z,19.65
2022-11-19T14:29:27.844Z,19.65
2022-11-19T14:32:00.323Z,19.65
2022-11-19T14:34:30.211Z,19.64
2022-11-19T14:37:00.625Z,19.61
2022-11-19T14:39:31.167Z,19.65
2022-11-19T14:42:27.010Z,19.65
2022-11-19T14:45:05.345Z,19.65
2022-11-19T14:47:36.258Z,19.64
2022-11-19T14:50:07.085Z,19.62
2022-11-19T14:52:49.314Z,19.60
2022-11-19T14:55:25.207Z,19.61
2022-11-19T14:58:05.340Z,19.62
2022-11-19T15:00:40.003Z,19.60
2022-11-19T15:03:13.905Z,19.58
2022-11-19T15:05:43.030Z,19.56
2022-11-19T15:08:18.660Z,19.55
2022-11-19T15:11:06.631Z,19.55
2022-11-19T15:13:36.725Z,19.54
2022-11-19T15:16:13.525Z,19.56
2022-11-19T15:18:40.005Z,19.52
2022-11-19T15:21:06.484Z,19.53
2022-11-19T15:23:50.450Z,19.55
2022-11-19T15:26:35.036Z,19.59
2022-11-19T15:29:26.191Z,19.54
2022-11-19T15:32:07.909Z,19.50
2022-11-19T15:35:12.914Z,19.49
2022-11-19T15:37:51.268Z,19.44
2022-11-19T15:40:22.657Z,19.47
2022-11-19T15:43:16.734Z,19.51
2022-11-19T15:45:50.072Z,19.49
2022-11-19T15:48:23.814Z,19.49
2022-11-19T15:50:51.919Z,19.50
2022-11-19T15:53:21.251Z,19.50
2022-11-19T15:55:57.217Z,19.50
2022-11-19T15:58:31.385Z,19.52
2022-11-19T16:00:57.959Z,19.46
2022-11-19T16:03:24.645Z,19.48
2022-11-19T16:06:03.693Z,19.48
2022-11-19T16:08:30.849Z,19.45
2022-11-19T16:11:20.349Z,19.47
2022-11-19T16:14:12.851Z,19.44
2022-11-19T16:16:58.197Z,19.42
2022-11-19T16:19:24.914Z,19.43
2022-11-19T16:21:56.947Z,19.46
2022-11-19T16:24:44.633Z,19.42
2022-11-19T16:27:13.271Z,19.39
2022-11-19T16:29:42.744Z,19.37
2022-11-19T16:32:17.941Z,19.39
2022-11-19T16:34:44.964Z,19.41
2022-11-19T16:37:15.087Z,19.40
2022-11-19T16:39:43.419Z,19.39
2022-11-19T16:42:19.209Z,19.39
2022-11-19T16:44:51.124Z,19.41
2022-11-19T16:47:39.553Z,19.44
2022-11-19T16:50:27.845Z,19.40
2022-11-19T16:52:55.772Z,19.42
2022-11-19T16:55:25.271Z,19.41
2022-11-19T16:57:59.977Z,19.40
2022-11-19T17:00:37.475Z,19.40
2022-11-19T17:03:37.128Z,19.40
2022-11-19T17:06:05.584Z,19.42
2022-11-19T17:08:36.768Z,19.39
2022-11-19T17:11:39.219Z,19.41
2022-11-19T17:14:23.258Z,19.44
2022-11-19T17:16:52.701Z,19.43
2022-11-19T17:19:26.652Z,19.42
2022-11-19T17:22:00.160Z,19.45
2022-11-19T17:24:36.762Z,19.44
2022-11-19T17:27:03.541Z,19.44
2022-11-19T17:29:30.192Z,19.45
2022-11-19T17:31:56.928Z,19.43
2022-11-19T17:34:30.977Z,19.44
2022-11-19T17:36:58.035Z,19.43
2022-11-19T17:39:25.877Z,19.44
2022-11-19T17:42:13.960Z,19.43
2022-11-19T17:44:41.445Z,19.41
2022-11-19T17:47:23.834Z,19.43
2022-11-19T17:49:52.096Z,19.43
2022-11-19T17:52:26.474Z,19.43
2022-11-19T17:54:56.797Z,19.43
2022-11-19T17:57:23.515Z,19.42
2022-11-19T17:59:50.222Z,19.41
2022-11-19T18:02:19.551Z,19.42
2022-11-19T18:04:47.972Z,19.39
2022-11-19T18:07:14.668Z,19.41
2022-11-19T18:09:41.822Z,19.37
2022-11-19T18:12:14.502Z,19.38
2022-11-19T18:14:41.892Z,19.38
2022-11-19T18:17:12.670Z,19.41
2022-11-19T18:19:39.306Z,19.42
2022-11-19T18:22:06.715Z,19.40
2022-11-19T18:24:33.334Z,19.42
2022-11-19T18:26:59.945Z,19.44
2022-11-19T18:29:30.451Z,19.43
2022-11-19T18:31:56.991Z,19.45
2022-11-19T18:34:24.160Z,19.46
2022-11-19T18:36:50.995Z,19.42
2022-11-19T18:39:17.562Z,19.42
2022-11-19T18:41:44.211Z,19.44
2022-11-19T18:44:34.264Z,19.46
2022-11-19T18:47:03.192Z,19.44
2022-11-19T18:49:30.662Z,19.43
2022-11-19T18:51:57.206Z,19.46
2022-11-19T18:54:24.061Z,19.45
2022-11-19T18:56:50.641Z,19.43
2022-11-19T18:59:17.632Z,19.42
2022-11-19T19:01:44.243Z,19.42
2022-11-19T19:04:14.290Z,19.41
2022-11-19T19:06:41.809Z,19.43
2022-11-19T19:09:08.514Z,19.40
2022-11-19T19:11:54.040Z,19.42
2022-11-19T19:14:20.708Z,19.39
2022-11-19T19:16:47.271Z,19.36
2022-11-19T19:19:19.235Z,19.37
2022-11-19T19:21:46.729Z,19.38
2022-11-19T19:24:13.506Z,19.38
2022-11-19T19:26:40.146Z,19.40
2022-11-19T19:29:07.132Z,19.36
2022-11-19T19:31:34.446Z,19.35
2022-11-19T19:34:03.967Z,19.36
2022-11-19T19:36:30.949Z,19.38
2022-11-19T19:38:57.508Z,19.37
2022-11-19T19:41:26.877Z,19.35
2022-11-19T19:43:55.362Z,19.35
2022-11-19T19:46:23.379Z,19.36
2022-11-19T19:48:52.442Z,19.37
2022-11-19T19:51:20.728Z,19.37
2022-11-19T19:53:47.834Z,19.40
2022-11-19T19:56:17.283Z,19.37
2022-11-19T19:58:45.055Z,19.41
2022-11-19T20:01:20.204Z,19.41
2022-11-19T20:03:51.739Z,19.41
2022-11-19T20:06:22.707Z,19.39
2022-11-19T20:08:49.273Z,19.39
2022-11-19T20:11:20.218Z,19.42
2022-11-19T20:13:47.653Z,19.41
2022-11-19T20:16:20.319Z,19.39
2022-11-19T20:18:48.238Z,19.37
2022-11-19T20:21:17.431Z,19.36
2022-11-19T20:23:44.366Z,19.35
2022-11-19T20:26:31.606Z,19.39
2022-11-19T20:29:01.126Z,19.37
2022-11-19T20:31:29.501Z,19.37
2022-11-19T20:34:01.597Z,19.33
2022-11-19T20:36:30.699Z,19.36
2022-11-19T20:39:00.459Z,19.37
2022-11-19T20:41:46.564Z,19.32
2022-11-19T20:44:21.164Z,19.32
2022-11-19T20:46:49.196Z,19.36
2022-11-19T20:49:17.548Z,19.35
2022-11-19T20:51:44.681Z,19.33
2022-11-19T20:54:12.132Z,19.34
2022-11-19T20:56:39.233Z,19.36
2022-11-19T20:59:06.245Z,19.35
2022-11-19T21:01:34.197Z,19.36
2022-11-19T21:04:00.805Z,19.35
2022-11-19T21:06:27.606Z,19.37
2022-11-19T21:08:54.149Z,19.34
2022-11-19T21:11:20.905Z,19.36
2022-11-19T21:13:47.490Z,19.38
2022-11-19T21:16:19.200Z,19.38
2022-11-19T21:18:45.767Z,19.36
2022-11-19T21:21:14.428Z,19.37
2022-11-19T21:23:41.777Z,19.38
2022-11-19T21:26:17.092Z,19.36
2022-11-19T21:28:47.979Z,19.36
2022-11-19T21:31:16.876Z,19.39
2022-11-19T21:33:43.709Z,19.39
2022-11-19T21:36:10.674Z,19.37
2022-11-19T21:38:37.232Z,19.38
2022-11-19T21:41:04.411Z,19.38
2022-11-19T21:43:31.123Z,19.36
2022-11-19T21:45:57.775Z,19.37
2022-11-19T21:48:25.544Z,19.35
2022-11-19T21:50:52.627Z,19.35
2022-11-19T21:53:19.764Z,19.36
2022-11-19T21:55:47.233Z,19.35
2022-11-19T21:58:15.341Z,19.36
2022-11-19T22:00:43.822Z,19.37
2022-11-19T22:03:10.626Z,19.36
2022-11-19T22:05:37.199Z,19.33
2022-11-19T22:08:03.876Z,19.37
2022-11-19T22:10:30.815Z,19.36
2022-11-19T22:13:00.092Z,19.33
2022-11-19T22:15:27.206Z,19.32
2022-11-19T22:17:54.030Z,19.29
2022-11-19T22:20:20.649Z,19.32
2022-11-19T22:22:47.311Z,19.31
2022-11-19T22:25:14.673Z,19.34
2022-11-19T22:27:41.764Z,19.32
2022-11-19T22:30:10.293Z,19.35
2022-11-19T22:32:37.149Z,19.31
2022-11-19T22:35:04.673Z,19.29
2022-11-19T22:37:31.332Z,19.32
2022-11-19T22:39:57.910Z,19.32
2022-11-19T22:42:24.464Z,19.36
2022-11-19T22:44:51.534Z,19.37
2022-11-19T22:47:18.096Z,19.35
2022-11-19T22:49:44.662Z,19.37
2022-11-19T22:52:11.272Z,19.36
2022-11-19T22:54:41.526Z,19.36
2022-11-19T22:57:09.006Z,19.34
2022-11-19T22:59:35.865Z,19.37
2022-11-19T23:02:03.173Z,19.31
2022-11-19T23:04:29.738Z,19.30
2022-11-19T23:06:56.709Z,19.32
2022-11-19T23:09:23.642Z,19.34
2022-11-19T23:12:08.951Z,19.33
2022-11-19T23:14:35.523Z,19.30
2022-11-19T23:17:02.239Z,19.29
2022-11-19T23:19:28.842Z,19.29
2022-11-19T23:21:55.409Z,19.29
2022-11-19T23:24:21.953Z,19.29
2022-11-19T23:26:48.540Z,19.29
2022-11-19T23:29:15.109Z,19.32
2022-11-19T23:31:41.663Z,19.30
2022-11-19T23:34:08.912Z,19.30
2022-11-19T23:36:38.369Z,19.33
2022-11-19T23:39:06.315Z,19.28
2022-11-19T23:41:34.040Z,19.28
2022-11-19T23:44:01.321Z,19.30
2022-11-19T23:46:30.695Z,19.33
2022-11-19T23:48:58.242Z,19.31
2022-11-19T23:51:34.465Z,19.35
2022-11-19T23:54:01.241Z,19.33
2022-11-19T23:56:30.615Z,19.33
2022-11-19T23:58:57.778Z,19.33
